INDIA METEOROLOGICAL DEPARTMENT, R.M.C. NEW DELHI
Dated:27 - 7 - 2017
METARS OF ALTERNATE AIRPORTS
Delhi      
VIDP 270830Z 12008KT 4000 HZ SCT035 BKN100 33/25 Q1003 NOSIG =
Amritsar   
VIAR 270830Z 13009KT 3500 VCTS SCT030 FEW035CB BKN090 33/30 Q1002 TEMPO TS RA=
Lucknow    
VILK 270830Z 09010G20KT 4000 HZ SCT015 SCT025 BKN100 32/27 Q1000 NOSIG=
Jaipur     
VIJP 270830Z 09010KT 5000 HZ SCT030 33/24 Q1003 NOSIG=
Ahmedabad  
VAAH 270830Z 27008KT 2200 -RA SCT010 SCT018 OVC070 26/25 Q1002 NOSIG=
Udaipur    
VAUD 270800Z 06005KT 2500 -RA SCT015 BKN020 FEW035CB BKN080 29/26 Q1003 TEMPO 1500TSRA =
Mumbai     
VABB 270830Z 24010G21KT 3000 HZ SCT018 FEW025TCU BKN100 30/26 Q1005 NOSIG=